Terminal Aerodrome Forecast
Issued by NWS New Orleans/Baton Rouge, LA

Home | Current Version | Previous Version | Text Only | Print | Product List | Glossary On
Versions: 1 2 3 4 5 6 7 8 9 10 11 12
000
FTUS44 KLIX 251139
TAFNEW
TAF
KNEW 251139Z 2512/2612 35005KT P6SM FEW250
     FM252100 15006KT P6SM SCT250
     FM252330 14004KT P6SM SCT200=

USA.gov is the U.S. government's official web portal to all federal, state and local government web resources and services.